createdAt,value
2022-08-17T00:00:42.715Z,18.05
2022-08-17T00:03:32.672Z,18.04
2022-08-17T00:06:13.166Z,17.98
2022-08-17T00:08:55.868Z,17.89
2022-08-17T00:11:32.333Z,17.78
2022-08-17T00:14:11.080Z,17.72
2022-08-17T00:16:56.304Z,17.71
2022-08-17T00:19:28.328Z,17.70
2022-08-17T00:22:32.814Z,17.66
2022-08-17T00:24:51.315Z,17.57
2022-08-17T00:27:21.755Z,17.49
2022-08-17T00:29:52.672Z,17.49
2022-08-17T00:33:11.823Z,17.47
2022-08-17T00:35:13.668Z,17.38
2022-08-17T00:37:42.497Z,17.35
2022-08-17T00:40:13.688Z,17.27
2022-08-17T00:42:45.134Z,17.14
2022-08-17T00:45:16.806Z,17.09
2022-08-17T00:47:45.903Z,17.05
2022-08-17T00:50:17.560Z,17.00
2022-08-17T00:52:53.651Z,17.01
2022-08-17T00:55:26.470Z,16.99
2022-08-17T00:58:00.876Z,16.95
2022-08-17T01:00:36.550Z,16.91
2022-08-17T01:03:15.297Z,16.88
2022-08-17T01:05:43.856Z,16.74
2022-08-17T01:08:17.143Z,16.69
2022-08-17T01:10:59.456Z,16.66
2022-08-17T01:13:39.777Z,16.60
2022-08-17T01:16:33.102Z,16.57
2022-08-17T01:19:26.987Z,16.57
2022-08-17T01:22:04.338Z,16.63
2022-08-17T01:24:34.282Z,16.67
2022-08-17T01:27:10.429Z,16.65
2022-08-17T01:29:44.048Z,16.64
2022-08-17T01:32:14.533Z,16.67
2022-08-17T01:34:45.519Z,16.72
2022-08-17T01:37:21.672Z,16.74
2022-08-17T01:39:56.209Z,16.72
2022-08-17T01:42:31.956Z,16.73
2022-08-17T01:45:11.758Z,16.71
2022-08-17T01:47:42.026Z,16.76
2022-08-17T01:50:16.264Z,16.82
2022-08-17T01:52:47.051Z,16.90
2022-08-17T01:55:24.573Z,16.94
2022-08-17T01:57:57.147Z,16.96
2022-08-17T02:00:27.939Z,16.99
2022-08-17T02:03:17.395Z,17.00
2022-08-17T02:05:50.265Z,16.96
2022-08-17T02:08:39.130Z,16.95
2022-08-17T02:11:19.361Z,16.91
2022-08-17T02:13:55.053Z,16.84
2022-08-17T02:16:39.453Z,16.82
2022-08-17T02:19:11.509Z,16.82
2022-08-17T02:21:42.358Z,16.81
2022-08-17T02:24:58.834Z,16.80
2022-08-17T02:27:07.997Z,16.81
2022-08-17T02:29:37.397Z,16.82
2022-08-17T02:32:06.152Z,16.84
2022-08-17T02:34:35.001Z,16.85
2022-08-17T02:37:03.645Z,16.86
2022-08-17T02:39:32.217Z,16.90
2022-08-17T02:42:04.998Z,16.93
2022-08-17T02:44:39.625Z,16.93
2022-08-17T02:47:12.719Z,16.94
2022-08-17T02:49:46.301Z,16.97
2022-08-17T02:52:43.508Z,16.97
2022-08-17T02:55:17.290Z,16.95
2022-08-17T02:57:46.487Z,16.94
2022-08-17T03:00:21.416Z,16.94
2022-08-17T03:02:50.950Z,16.97
2022-08-17T03:05:22.138Z,16.98
2022-08-17T03:07:51.360Z,16.93
2022-08-17T03:10:21.857Z,16.89
2022-08-17T03:12:53.078Z,16.86
2022-08-17T03:15:31.699Z,16.83
2022-08-17T03:18:03.778Z,16.83
2022-08-17T03:20:34.548Z,16.85
2022-08-17T03:23:04.030Z,16.89
2022-08-17T03:25:43.478Z,16.93
2022-08-17T03:28:12.878Z,16.99
2022-08-17T03:30:42.098Z,17.04
2022-08-17T03:33:11.204Z,17.09
2022-08-17T03:35:41.703Z,17.14
2022-08-17T03:38:12.025Z,17.18
2022-08-17T03:40:57.565Z,17.21
2022-08-17T03:43:31.882Z,17.25
2022-08-17T03:46:28.100Z,17.29
2022-08-17T03:49:26.183Z,17.30
2022-08-17T03:52:16.574Z,17.30
2022-08-17T03:55:05.814Z,17.26
2022-08-17T03:57:34.304Z,17.25
2022-08-17T04:00:04.806Z,17.20
2022-08-17T04:02:42.658Z,17.17
2022-08-17T04:05:12.220Z,17.13
2022-08-17T04:07:43.865Z,17.09
2022-08-17T04:10:13.558Z,17.05
2022-08-17T04:12:58.460Z,17.06
2022-08-17T04:15:27.346Z,17.04
2022-08-17T04:17:55.843Z,17.04
2022-08-17T04:20:26.517Z,17.05
2022-08-17T04:23:28.568Z,17.09
2022-08-17T04:25:57.720Z,17.12
2022-08-17T04:28:26.726Z,17.16
2022-08-17T04:30:56.754Z,17.24
2022-08-17T04:33:27.707Z,17.34
2022-08-17T04:36:03.205Z,17.38
2022-08-17T04:38:35.188Z,17.39
2022-08-17T04:41:23.930Z,17.45
2022-08-17T04:43:59.024Z,17.55
2022-08-17T04:46:33.785Z,17.67
2022-08-17T04:49:06.717Z,17.81
2022-08-17T04:51:39.030Z,18.03
2022-08-17T04:54:20.542Z,18.24
2022-08-17T04:56:49.486Z,18.57
2022-08-17T04:59:21.511Z,18.91
2022-08-17T05:01:52.132Z,18.97
2022-08-17T05:04:34.023Z,19.18
2022-08-17T05:07:05.262Z,19.42
2022-08-17T05:09:34.872Z,19.60
2022-08-17T05:12:04.973Z,19.82
2022-08-17T05:14:35.632Z,20.07
2022-08-17T05:17:11.021Z,20.33
2022-08-17T05:19:41.437Z,20.50
2022-08-17T05:22:10.855Z,20.69
2022-08-17T05:24:43.582Z,21.01
2022-08-17T05:27:23.474Z,21.59
2022-08-17T05:29:52.612Z,22.16
2022-08-17T05:32:39.284Z,22.69
2022-08-17T05:35:09.520Z,23.31
2022-08-17T05:37:39.567Z,23.82
2022-08-17T05:40:10.440Z,24.19
2022-08-17T05:42:39.415Z,24.53
2022-08-17T05:45:09.905Z,24.92
2022-08-17T05:47:42.859Z,25.31
2022-08-17T05:50:26.037Z,25.62
2022-08-17T05:53:16.181Z,25.90
2022-08-17T05:56:22.716Z,26.00
2022-08-17T05:59:11.814Z,25.96
2022-08-17T06:02:12.574Z,25.99
2022-08-17T06:04:44.612Z,25.88
2022-08-17T06:07:33.087Z,25.76
2022-08-17T06:10:14.881Z,25.62
2022-08-17T06:12:49.010Z,25.48
2022-08-17T06:15:35.996Z,25.33
2022-08-17T06:18:08.949Z,25.19
2022-08-17T06:20:50.644Z,25.18
2022-08-17T06:24:10.880Z,25.11
2022-08-17T06:26:43.472Z,25.03
2022-08-17T06:29:27.359Z,25.03
2022-08-17T06:31:59.418Z,25.00
2022-08-17T06:34:28.461Z,24.89
2022-08-17T06:37:21.289Z,24.75
2022-08-17T06:40:11.184Z,24.60
2022-08-17T06:43:05.769Z,24.54
2022-08-17T06:45:41.486Z,24.52
2022-08-17T06:48:31.494Z,24.54
2022-08-17T06:51:27.796Z,24.50
2022-08-17T06:54:07.163Z,24.56
2022-08-17T06:56:52.988Z,24.60
2022-08-17T06:59:47.163Z,24.69
2022-08-17T07:02:29.143Z,24.76
2022-08-17T07:05:17.786Z,24.85
2022-08-17T07:08:17.002Z,24.99
2022-08-17T07:10:56.816Z,25.09
2022-08-17T07:13:40.434Z,25.20
2022-08-17T07:16:36.738Z,25.34
2022-08-17T07:19:07.991Z,25.58
2022-08-17T07:22:04.837Z,25.93
2022-08-17T07:24:47.523Z,26.37
2022-08-17T07:27:21.036Z,27.16
2022-08-17T07:29:59.338Z,27.75
2022-08-17T07:32:41.721Z,28.34
2022-08-17T07:35:15.664Z,28.86
2022-08-17T07:38:25.457Z,29.29
2022-08-17T07:41:02.417Z,30.00
2022-08-17T07:43:40.581Z,30.59
2022-08-17T07:46:34.479Z,31.37
2022-08-17T07:49:08.802Z,32.01
2022-08-17T07:51:43.487Z,32.51
2022-08-17T07:54:26.242Z,33.11
2022-08-17T07:57:03.769Z,33.98
2022-08-17T07:59:36.805Z,34.10
2022-08-17T08:02:31.890Z,33.96
2022-08-17T08:05:29.972Z,33.85
2022-08-17T08:08:33.484Z,33.93
2022-08-17T08:11:12.496Z,34.28
2022-08-17T08:13:44.007Z,34.50
2022-08-17T08:16:29.865Z,34.59
2022-08-17T08:19:01.700Z,34.34
2022-08-17T08:21:57.736Z,34.43
2022-08-17T08:24:52.020Z,34.71
2022-08-17T08:27:30.515Z,34.97
2022-08-17T08:30:17.373Z,34.97
2022-08-17T08:33:17.444Z,34.91
2022-08-17T08:36:58.138Z,34.70
2022-08-17T08:39:52.063Z,34.14
2022-08-17T08:42:29.247Z,33.95
2022-08-17T08:45:22.727Z,33.83
2022-08-17T08:48:22.924Z,33.62
2022-08-17T08:51:06.312Z,33.58
2022-08-17T08:54:01.767Z,33.60
2022-08-17T08:57:22.300Z,33.60
2022-08-17T08:59:59.897Z,33.22
2022-08-17T09:02:55.864Z,32.90
2022-08-17T09:05:56.692Z,32.81
2022-08-17T09:08:41.358Z,32.64
2022-08-17T09:11:22.651Z,32.48
2022-08-17T09:14:21.508Z,32.40
2022-08-17T09:17:15.239Z,32.34
2022-08-17T09:19:51.686Z,33.04
2022-08-17T09:22:37.508Z,33.63
2022-08-17T09:25:28.620Z,34.45
2022-08-17T09:28:05.871Z,35.41
2022-08-17T09:30:47.692Z,36.58
2022-08-17T09:33:23.822Z,37.11
2022-08-17T09:35:59.379Z,37.19
2022-08-17T09:39:03.624Z,36.83
2022-08-17T09:41:37.716Z,36.53
2022-08-17T09:44:32.454Z,36.63
2022-08-17T09:47:47.615Z,37.30
2022-08-17T09:50:55.424Z,37.96
2022-08-17T09:53:27.118Z,37.97
2022-08-17T09:56:14.754Z,38.19
2022-08-17T09:58:56.775Z,38.47
2022-08-17T10:01:36.980Z,38.66
2022-08-17T10:04:29.337Z,39.02
2022-08-17T10:07:15.064Z,39.28
2022-08-17T10:09:51.222Z,39.51
2022-08-17T10:12:29.767Z,39.56
2022-08-17T10:15:09.533Z,39.36
2022-08-17T10:18:08.695Z,39.61
2022-08-17T10:21:15.568Z,39.89
2022-08-17T10:24:24.819Z,40.12
2022-08-17T10:26:58.494Z,39.91
2022-08-17T10:29:49.005Z,40.19
2022-08-17T10:32:35.893Z,40.49
2022-08-17T10:35:26.192Z,40.29
2022-08-17T10:38:14.969Z,40.09
2022-08-17T10:40:55.001Z,40.33
2022-08-17T10:44:37.603Z,40.53
2022-08-17T10:47:11.888Z,40.74
2022-08-17T10:49:48.187Z,41.11
2022-08-17T10:52:20.171Z,41.25
2022-08-17T10:54:51.852Z,41.31
2022-08-17T10:57:29.967Z,41.44
2022-08-17T11:00:18.472Z,41.01
2022-08-17T11:02:53.747Z,40.26
2022-08-17T11:05:54.249Z,39.64
2022-08-17T11:08:53.940Z,39.00
2022-08-17T11:11:36.787Z,38.04
2022-08-17T11:14:24.259Z,37.59
2022-08-17T11:17:12.432Z,37.26
2022-08-17T11:20:17.056Z,36.86
2022-08-17T11:22:49.113Z,36.53
2022-08-17T11:25:32.288Z,36.30
2022-08-17T11:28:24.116Z,35.78
2022-08-17T11:30:57.647Z,35.48
2022-08-17T11:33:29.543Z,35.18
2022-08-17T11:36:39.141Z,34.77
2022-08-17T11:39:13.851Z,34.41
2022-08-17T11:41:58.612Z,34.23
2022-08-17T11:45:08.341Z,33.84
2022-08-17T11:48:29.188Z,33.49
2022-08-17T11:51:36.353Z,33.27
2022-08-17T11:54:34.546Z,33.16
2022-08-17T11:57:27.424Z,33.01
2022-08-17T12:00:12.029Z,33.05
2022-08-17T12:02:48.317Z,33.08
2022-08-17T12:05:17.206Z,32.97
2022-08-17T12:08:07.416Z,32.77
2022-08-17T12:10:49.685Z,32.52
2022-08-17T12:13:19.658Z,32.23
2022-08-17T12:15:53.003Z,31.98
2022-08-17T12:18:36.061Z,31.86
2022-08-17T12:21:22.443Z,31.79
2022-08-17T12:23:56.106Z,31.62
2022-08-17T12:26:32.143Z,31.49
2022-08-17T12:29:06.800Z,31.37
2022-08-17T12:31:46.194Z,31.28
2022-08-17T12:34:26.743Z,31.12
2022-08-17T12:37:05.216Z,31.16
2022-08-17T12:39:34.178Z,31.22
2022-08-17T12:42:06.061Z,31.26
2022-08-17T12:44:46.168Z,31.23
2022-08-17T12:47:22.726Z,31.19
2022-08-17T12:49:55.541Z,31.24
2022-08-17T12:52:33.336Z,31.30
2022-08-17T12:55:18.311Z,31.36
2022-08-17T12:57:59.942Z,31.25
2022-08-17T13:00:38.361Z,31.00
2022-08-17T13:03:12.738Z,30.81
2022-08-17T13:05:59.721Z,30.63
2022-08-17T13:08:35.450Z,30.42
2022-08-17T13:11:09.714Z,30.05
2022-08-17T13:13:45.003Z,29.86
2022-08-17T13:16:14.501Z,29.63
2022-08-17T13:18:52.042Z,29.51
2022-08-17T13:21:24.542Z,29.44
2022-08-17T13:24:17.856Z,29.41
2022-08-17T13:26:52.505Z,29.28
2022-08-17T13:29:33.735Z,29.21
2022-08-17T13:32:13.000Z,29.10
2022-08-17T13:35:13.475Z,29.09
2022-08-17T13:37:36.151Z,29.01
2022-08-17T13:40:11.035Z,29.00
2022-08-17T13:42:51.904Z,28.99
2022-08-17T13:45:36.114Z,28.98
2022-08-17T13:48:12.382Z,29.04
2022-08-17T13:50:58.169Z,29.11
2022-08-17T13:53:32.868Z,29.08
2022-08-17T13:56:37.385Z,29.01
2022-08-17T13:59:53.443Z,28.92
2022-08-17T14:02:21.214Z,28.82
2022-08-17T14:04:51.623Z,28.82
2022-08-17T14:07:33.967Z,28.87
2022-08-17T14:10:06.404Z,28.91
2022-08-17T14:12:38.384Z,28.94
2022-08-17T14:15:08.497Z,28.95
2022-08-17T14:17:39.134Z,28.90
2022-08-17T14:20:12.098Z,28.82
2022-08-17T14:22:45.422Z,28.75
2022-08-17T14:25:21.130Z,28.67
2022-08-17T14:27:54.350Z,28.60
2022-08-17T14:30:26.702Z,28.49
2022-08-17T14:32:59.461Z,28.43
2022-08-17T14:35:29.608Z,28.31
2022-08-17T14:37:59.786Z,28.18
2022-08-17T14:40:31.833Z,28.11
2022-08-17T14:43:01.609Z,28.04
2022-08-17T14:45:34.680Z,28.03
2022-08-17T14:48:08.175Z,28.04
2022-08-17T14:50:42.204Z,27.99
2022-08-17T14:53:13.891Z,28.01
2022-08-17T14:55:46.943Z,27.99
2022-08-17T14:58:19.696Z,28.09
2022-08-17T15:00:51.085Z,28.16
2022-08-17T15:03:22.999Z,28.21
2022-08-17T15:05:52.581Z,28.29
2022-08-17T15:08:22.414Z,28.33
2022-08-17T15:10:54.363Z,28.32
2022-08-17T15:13:26.514Z,28.31
2022-08-17T15:15:55.442Z,28.28
2022-08-17T15:18:25.364Z,28.26
2022-08-17T15:20:53.993Z,28.25
2022-08-17T15:23:26.465Z,28.20
2022-08-17T15:25:55.404Z,28.16
2022-08-17T15:28:26.195Z,28.13
2022-08-17T15:30:56.912Z,28.07
2022-08-17T15:33:32.955Z,28.06
2022-08-17T15:36:06.708Z,28.06
2022-08-17T15:38:39.442Z,28.05
2022-08-17T15:41:13.863Z,28.06
2022-08-17T15:43:44.969Z,28.06
2022-08-17T15:46:23.238Z,28.12
2022-08-17T15:48:57.549Z,28.12
2022-08-17T15:51:30.955Z,28.03
2022-08-17T15:54:31.711Z,27.81
2022-08-17T15:57:04.650Z,27.53
2022-08-17T15:59:35.009Z,27.27
2022-08-17T16:03:13.968Z,26.94
2022-08-17T16:05:12.759Z,26.71
2022-08-17T16:07:43.620Z,26.50
2022-08-17T16:10:16.744Z,26.30
2022-08-17T16:12:50.609Z,26.18
2022-08-17T16:15:19.478Z,26.05
2022-08-17T16:17:48.022Z,25.89
2022-08-17T16:20:20.281Z,25.72
2022-08-17T16:22:55.478Z,25.65
2022-08-17T16:25:52.707Z,25.52
2022-08-17T16:28:19.329Z,25.36
2022-08-17T16:30:49.709Z,25.31
2022-08-17T16:33:19.014Z,25.28
2022-08-17T16:35:47.608Z,25.28
2022-08-17T16:38:17.910Z,25.27
2022-08-17T16:40:47.483Z,25.29
2022-08-17T16:43:17.466Z,25.31
2022-08-17T16:45:51.870Z,25.23
2022-08-17T16:48:20.831Z,25.15
2022-08-17T16:51:03.476Z,25.08
2022-08-17T16:53:37.521Z,25.03
2022-08-17T16:56:09.467Z,24.97
2022-08-17T16:58:39.602Z,24.93
2022-08-17T17:01:09.114Z,24.87
2022-08-17T17:03:40.966Z,24.79
2022-08-17T17:06:37.774Z,24.71
2022-08-17T17:09:30.396Z,24.61
2022-08-17T17:12:03.083Z,24.52
2022-08-17T17:14:46.778Z,24.39
2022-08-17T17:17:28.680Z,24.25
2022-08-17T17:20:17.486Z,24.14
2022-08-17T17:22:49.805Z,24.02
2022-08-17T17:25:30.085Z,23.90
2022-08-17T17:28:15.400Z,23.84
2022-08-17T17:30:50.475Z,23.82
2022-08-17T17:33:29.493Z,23.81
2022-08-17T17:36:27.431Z,23.75
2022-08-17T17:39:05.664Z,23.67
2022-08-17T17:41:44.925Z,23.57
2022-08-17T17:44:17.953Z,23.43
2022-08-17T17:46:56.287Z,23.33
2022-08-17T17:49:30.400Z,23.23
2022-08-17T17:52:24.451Z,23.11
2022-08-17T17:55:20.670Z,23.03
2022-08-17T17:58:02.841Z,22.98
2022-08-17T18:00:55.230Z,22.97
2022-08-17T18:03:51.462Z,22.95
2022-08-17T18:06:27.378Z,22.87
2022-08-17T18:09:33.795Z,22.79
2022-08-17T18:12:19.935Z,22.70
2022-08-17T18:15:09.969Z,22.61
2022-08-17T18:17:38.523Z,22.54
2022-08-17T18:20:08.270Z,22.45
2022-08-17T18:22:40.735Z,22.40
2022-08-17T18:25:44.114Z,22.30
2022-08-17T18:28:27.558Z,22.20
2022-08-17T18:31:13.676Z,22.15
2022-08-17T18:33:46.254Z,22.08
2022-08-17T18:36:32.222Z,22.05
2022-08-17T18:39:23.629Z,22.02
2022-08-17T18:41:54.958Z,21.95
2022-08-17T18:44:29.579Z,21.92
2022-08-17T18:47:12.796Z,21.83
2022-08-17T18:49:43.966Z,21.79
2022-08-17T18:52:17.476Z,21.77
2022-08-17T18:55:15.326Z,21.74
2022-08-17T18:57:48.346Z,21.66
2022-08-17T19:00:21.356Z,21.64
2022-08-17T19:03:01.243Z,21.63
2022-08-17T19:05:37.965Z,21.57
2022-08-17T19:08:26.344Z,21.55
2022-08-17T19:11:03.163Z,21.56
2022-08-17T19:13:37.627Z,21.55
2022-08-17T19:16:27.991Z,21.51
2022-08-17T19:19:19.849Z,21.46
2022-08-17T19:21:55.127Z,21.45
2022-08-17T19:24:27.449Z,21.45
2022-08-17T19:27:19.614Z,21.45
2022-08-17T19:30:08.372Z,21.41
2022-08-17T19:32:38.267Z,21.41
2022-08-17T19:35:13.705Z,21.41
2022-08-17T19:38:04.401Z,21.41
2022-08-17T19:40:54.050Z,21.38
2022-08-17T19:44:07.743Z,21.37
2022-08-17T19:47:30.467Z,21.35
2022-08-17T19:50:18.988Z,21.33
2022-08-17T19:53:02.259Z,21.31
2022-08-17T19:55:49.549Z,21.25
2022-08-17T19:58:45.842Z,21.20
2022-08-17T20:01:38.365Z,21.14
2022-08-17T20:04:32.292Z,21.15
2022-08-17T20:07:10.787Z,21.18
2022-08-17T20:09:47.502Z,21.22
2022-08-17T20:12:29.854Z,21.25
2022-08-17T20:15:18.549Z,21.29
2022-08-17T20:17:48.826Z,21.35
2022-08-17T20:20:43.972Z,21.40
2022-08-17T20:24:00.252Z,21.50
2022-08-17T20:26:58.704Z,21.58
2022-08-17T20:30:13.017Z,21.63
2022-08-17T20:33:02.513Z,21.68
2022-08-17T20:35:37.264Z,21.70
2022-08-17T20:38:35.941Z,21.70
2022-08-17T20:41:04.643Z,21.66
2022-08-17T20:43:35.853Z,21.63
2022-08-17T20:46:16.606Z,21.61
2022-08-17T20:48:51.473Z,21.62
2022-08-17T20:51:27.404Z,21.62
2022-08-17T20:54:04.543Z,21.58
2022-08-17T20:56:45.153Z,21.57
2022-08-17T20:59:26.046Z,21.59
2022-08-17T21:02:18.573Z,21.63
2022-08-17T21:04:54.701Z,21.63
2022-08-17T21:07:42.945Z,21.60
2022-08-17T21:10:24.257Z,21.54
2022-08-17T21:13:00.310Z,21.44
2022-08-17T21:15:44.017Z,21.38
2022-08-17T21:18:34.804Z,21.32
2022-08-17T21:21:26.632Z,21.28
2022-08-17T21:24:26.197Z,21.23
2022-08-17T21:27:21.629Z,21.15
2022-08-17T21:30:15.147Z,21.11
2022-08-17T21:33:05.034Z,21.05
2022-08-17T21:35:58.660Z,20.99
2022-08-17T21:38:56.979Z,20.89
2022-08-17T21:41:34.239Z,20.85
2022-08-17T21:44:18.388Z,20.85
2022-08-17T21:46:50.363Z,20.81
2022-08-17T21:49:25.651Z,20.77
2022-08-17T21:51:56.962Z,20.71
2022-08-17T21:54:39.173Z,20.66
2022-08-17T21:57:18.331Z,20.60
2022-08-17T21:59:54.172Z,20.58
2022-08-17T22:02:28.610Z,20.57
2022-08-17T22:05:13.182Z,20.53
2022-08-17T22:07:51.002Z,20.47
2022-08-17T22:10:38.244Z,20.44
2022-08-17T22:13:06.538Z,20.41
2022-08-17T22:16:27.802Z,20.38
2022-08-17T22:18:59.168Z,20.32
2022-08-17T22:21:27.748Z,20.26
2022-08-17T22:24:06.128Z,20.23
2022-08-17T22:27:14.154Z,20.19
2022-08-17T22:29:57.467Z,20.17
2022-08-17T22:32:37.740Z,20.16
2022-08-17T22:35:41.327Z,20.12
2022-08-17T22:38:19.064Z,20.07
2022-08-17T22:40:55.190Z,20.05
2022-08-17T22:43:28.828Z,19.99
2022-08-17T22:46:00.526Z,19.83
2022-08-17T22:48:30.613Z,19.73
2022-08-17T22:51:12.429Z,19.68
2022-08-17T22:54:30.434Z,19.65
2022-08-17T22:57:21.502Z,19.56
2022-08-17T22:59:56.620Z,19.47
2022-08-17T23:02:26.652Z,19.45
2022-08-17T23:05:16.881Z,19.48
2022-08-17T23:07:47.589Z,19.52
2022-08-17T23:10:16.502Z,19.51
2022-08-17T23:12:49.188Z,19.47
2022-08-17T23:15:20.872Z,19.45
2022-08-17T23:17:50.566Z,19.36
2022-08-17T23:20:20.553Z,19.30
2022-08-17T23:22:51.911Z,19.30
2022-08-17T23:25:29.313Z,19.36
2022-08-17T23:27:59.444Z,19.40
2022-08-17T23:30:31.387Z,19.43
2022-08-17T23:33:02.787Z,19.47
2022-08-17T23:35:40.444Z,19.51
2022-08-17T23:38:13.233Z,19.56
2022-08-17T23:40:43.980Z,19.61
2022-08-17T23:43:23.777Z,19.67
2022-08-17T23:45:56.220Z,19.68
2022-08-17T23:48:35.325Z,19.67
2022-08-17T23:51:13.707Z,19.68
2022-08-17T23:53:48.554Z,19.72
2022-08-17T23:56:23.674Z,19.71
2022-08-17T23:58:55.535Z,19.72
